Time;durP1;ratioP1;P1;durP2;ratioP2;P2;SDS_P1;SDS_P2;PMS_P1;PMS_P2;Temp;Humidity;BMP_temperature;BMP_pressure;BME280_temperature;BME280_humidity;BME280_pressure;Samples;Min_cycle;Max_cycle;Signal;HPM_P1;HPM_P2
2022/08/29 00:01:32;;;;;;;6.83;4.27;;;17.00;95.40;;;;;;5033163;28;20509;-76
2022/08/29 00:04:02;;;;;;;8.03;4.37;;;17.00;95.50;;;;;;5031623;28;20534;-76
2022/08/29 00:06:31;;;;;;;6.77;3.60;;;17.00;95.60;;;;;;5033265;28;20409;-77
2022/08/29 00:08:59;;;;;;;5.80;3.70;;;17.00;95.70;;;;;;5033414;28;20532;-76
2022/08/29 00:11:27;;;;;;;5.13;3.63;;;17.00;96.10;;;;;;5031924;28;20504;-76
2022/08/29 00:13:55;;;;;;;4.17;3.30;;;17.00;95.90;;;;;;5031572;28;20453;-76
2022/08/29 00:16:24;;;;;;;5.57;4.00;;;17.00;96.00;;;;;;5031625;28;20493;-76
2022/08/29 00:18:52;;;;;;;9.40;4.43;;;17.00;96.00;;;;;;5032760;28;20451;-76
2022/08/29 00:21:21;;;;;;;7.33;3.90;;;17.00;96.10;;;;;;5032165;28;20498;-77
2022/08/29 00:23:50;;;;;;;8.50;4.53;;;17.00;96.30;;;;;;5031484;28;20462;-76
2022/08/29 00:26:18;;;;;;;8.07;4.40;;;17.00;96.30;;;;;;5032784;28;20534;-76
2022/08/29 00:28:46;;;;;;;10.63;4.47;;;16.90;96.40;;;;;;5034097;28;20498;-76
2022/08/29 00:31:14;;;;;;;6.67;4.13;;;16.90;96.50;;;;;;5035191;28;20439;-76
2022/08/29 00:33:42;;;;;;;7.33;4.70;;;16.90;96.60;;;;;;5035087;28;20533;-76
2022/08/29 00:36:10;;;;;;;8.80;4.57;;;16.90;97.10;;;;;;5036438;28;20481;-76
2022/08/29 00:38:40;;;;;;;7.20;3.87;;;16.90;96.80;;;;;;5034922;28;20463;-76
2022/08/29 00:41:09;;;;;;;10.03;3.77;;;16.90;96.90;;;;;;5035010;28;20467;-76
2022/08/29 00:43:37;;;;;;;6.57;4.00;;;16.90;97.00;;;;;;5035965;28;20439;-76
2022/08/29 00:46:26;;;;;;;5.67;4.10;;;16.90;97.10;;;;;;5036023;28;20443;-76
2022/08/29 00:48:57;;;;;;;7.00;4.30;;;16.90;97.20;;;;;;5036531;28;20461;-76
2022/08/29 00:51:25;;;;;;;9.17;4.50;;;16.80;97.20;;;;;;5036580;28;20448;-76
2022/08/29 00:54:00;;;;;;;12.13;4.50;;;16.80;97.40;;;;;;5034682;28;20470;-76
2022/08/29 00:56:29;;;;;;;6.73;4.70;;;16.80;97.50;;;;;;5034773;28;20410;-76
2022/08/29 00:59:03;;;;;;;9.40;4.43;;;16.80;97.60;;;;;;5035770;28;20456;-77
2022/08/29 01:01:31;;;;;;;8.20;4.53;;;16.80;97.70;;;;;;5034521;28;20505;-76
2022/08/29 01:03:59;;;;;;;7.13;4.20;;;16.70;97.80;;;;;;5036049;28;20438;-77
2022/08/29 01:06:29;;;;;;;7.47;4.03;;;16.70;97.90;;;;;;5035708;28;20441;-76
2022/08/29 01:08:59;;;;;;;10.00;4.07;;;16.70;98.00;;;;;;5034273;28;20446;-76
2022/08/29 01:14:16;;;;;;;7.60;4.40;;;16.60;98.20;;;;;;5034260;28;20441;-76
2022/08/29 01:16:46;;;;;;;8.33;5.23;;;16.60;98.30;;;;;;5035806;28;20771;-75
2022/08/29 01:19:23;;;;;;;8.87;5.37;;;16.60;98.40;;;;;;5034221;28;20963;-75
2022/08/29 01:21:59;;;;;;;8.80;4.10;;;16.60;98.60;;;;;;5035623;28;20427;-76
2022/08/29 01:24:36;;;;;;;7.83;4.50;;;16.50;98.70;;;;;;5034081;28;20475;-75
2022/08/29 01:27:05;;;;;;;7.83;4.27;;;16.50;98.80;;;;;;5035694;28;20502;-77
2022/08/29 01:29:33;;;;;;;6.90;5.03;;;16.50;98.80;;;;;;5035330;28;20441;-77
2022/08/29 01:32:01;;;;;;;6.33;4.20;;;16.50;99.00;;;;;;5035104;28;20412;-77
2022/08/29 01:34:30;;;;;;;7.73;4.53;;;16.50;99.00;;;;;;5033915;28;20836;-76
2022/08/29 01:37:00;;;;;;;9.30;4.30;;;16.40;99.10;;;;;;5035444;28;20422;-76
2022/08/29 01:39:33;;;;;;;7.40;4.70;;;16.40;99.20;;;;;;5034844;28;20434;-76
2022/08/29 01:42:04;;;;;;;8.07;4.90;;;16.40;99.30;;;;;;5035166;28;20420;-76
2022/08/29 01:44:32;;;;;;;6.93;4.57;;;16.40;99.40;;;;;;5038167;28;20801;-77
2022/08/29 01:47:01;;;;;;;6.93;4.30;;;16.30;99.40;;;;;;5035140;28;20781;-76
2022/08/29 01:49:32;;;;;;;5.50;4.10;;;16.30;99.50;;;;;;5034883;28;20437;-75
2022/08/29 01:52:00;;;;;;;7.73;4.63;;;16.30;99.60;;;;;;5035279;28;20921;-76
2022/08/29 01:54:31;;;;;;;7.40;4.30;;;16.30;99.70;;;;;;5034814;28;20451;-76
2022/08/29 01:57:00;;;;;;;10.23;5.00;;;16.20;99.80;;;;;;5034761;28;20530;-75
2022/08/29 01:59:30;;;;;;;7.40;4.40;;;16.20;99.90;;;;;;5034749;28;20475;-76
2022/08/29 02:02:04;;;;;;;8.63;4.90;;;16.20;99.90;;;;;;5033389;28;20421;-76
2022/08/29 02:04:32;;;;;;;7.17;5.20;;;16.20;99.90;;;;;;5034994;28;20420;-76
2022/08/29 02:07:01;;;;;;;7.70;4.80;;;16.20;99.90;;;;;;5033676;28;20542;-77
2022/08/29 02:09:31;;;;;;;8.03;4.43;;;16.10;99.90;;;;;;5035374;28;20457;-76
2022/08/29 02:12:05;;;;;;;10.10;4.50;;;16.10;99.90;;;;;;5033902;28;20446;-76
2022/08/29 02:14:34;;;;;;;10.57;4.70;;;16.10;99.90;;;;;;5033944;28;20517;-76
2022/08/29 02:17:03;;;;;;;6.97;4.67;;;16.10;99.90;;;;;;5035388;28;20428;-76
2022/08/29 02:19:32;;;;;;;9.07;5.57;;;16.10;99.90;;;;;;5035384;28;20512;-76
2022/08/29 02:22:01;;;;;;;8.70;5.20;;;16.10;99.90;;;;;;5033157;28;20433;-77
2022/08/29 02:24:31;;;;;;;7.30;4.57;;;16.10;99.90;;;;;;5033089;28;20421;-77
2022/08/29 02:26:59;;;;;;;7.23;4.90;;;16.10;99.90;;;;;;5033083;28;20421;-76
2022/08/29 02:29:28;;;;;;;12.20;5.03;;;16.00;99.90;;;;;;5032861;28;20777;-77
2022/08/29 02:32:06;;;;;;;7.30;4.63;;;16.00;99.90;;;;;;5032957;28;20445;-77
2022/08/29 02:34:35;;;;;;;8.90;4.90;;;16.00;99.90;;;;;;5034302;28;20448;-76
2022/08/29 02:37:04;;;;;;;8.80;5.33;;;16.00;99.90;;;;;;5032666;28;20459;-76
2022/08/29 02:39:34;;;;;;;7.97;4.37;;;16.00;99.90;;;;;;5034140;28;20853;-76
2022/08/29 02:42:03;;;;;;;9.70;6.00;;;16.00;99.90;;;;;;5034141;28;20532;-76
2022/08/29 02:44:31;;;;;;;7.80;4.93;;;16.00;99.90;;;;;;5034076;28;20868;-76
2022/08/29 02:46:59;;;;;;;8.03;4.67;;;15.90;99.90;;;;;;5033991;28;20513;-76
2022/08/29 02:49:28;;;;;;;7.90;4.93;;;15.90;99.90;;;;;;5032489;28;20444;-76
2022/08/29 02:51:57;;;;;;;8.20;5.13;;;15.90;99.90;;;;;;5032426;28;20454;-76
2022/08/29 02:54:25;;;;;;;10.13;5.63;;;15.90;99.90;;;;;;5032286;28;20441;-76
2022/08/29 02:56:54;;;;;;;10.00;5.17;;;15.80;99.90;;;;;;5034181;28;20492;-76
2022/08/29 02:59:22;;;;;;;9.67;6.10;;;15.80;99.90;;;;;;5032284;28;20467;-76
2022/08/29 03:01:52;;;;;;;9.47;5.33;;;15.80;99.90;;;;;;5033814;28;20435;-75
2022/08/29 03:04:20;;;;;;;10.77;5.53;;;15.80;99.90;;;;;;5033543;28;20406;-76
2022/08/29 03:06:49;;;;;;;9.17;5.00;;;15.80;99.90;;;;;;5032289;28;20888;-75
2022/08/29 03:09:17;;;;;;;11.60;6.20;;;15.80;99.90;;;;;;5033697;28;20444;-76
2022/08/29 03:11:45;;;;;;;10.83;6.17;;;15.70;99.90;;;;;;5033708;28;20493;-75
2022/08/29 03:14:14;;;;;;;10.00;5.07;;;15.70;99.90;;;;;;5032100;28;20486;-75
2022/08/29 03:16:43;;;;;;;11.27;6.50;;;15.70;99.90;;;;;;5033681;28;20434;-76
2022/08/29 03:19:11;;;;;;;6.80;5.03;;;15.70;99.90;;;;;;5033376;28;20437;-76
2022/08/29 03:21:40;;;;;;;11.40;5.63;;;15.70;99.90;;;;;;5032102;28;20424;-77
2022/08/29 03:24:08;;;;;;;9.03;5.60;;;15.70;99.90;;;;;;5033678;28;20505;-77
2022/08/29 03:26:36;;;;;;;11.13;5.60;;;15.70;99.90;;;;;;5033642;28;20578;-77
2022/08/29 03:29:04;;;;;;;8.43;6.07;;;15.70;99.90;;;;;;5033448;28;20524;-76
2022/08/29 03:31:34;;;;;;;10.60;5.13;;;15.70;99.90;;;;;;5031947;28;20425;-76
2022/08/29 03:34:03;;;;;;;8.33;6.20;;;15.70;99.90;;;;;;5033613;28;20463;-77
2022/08/29 03:36:32;;;;;;;7.53;5.60;;;15.60;99.90;;;;;;5033287;28;20466;-76
2022/08/29 03:39:00;;;;;;;7.00;5.53;;;15.60;99.90;;;;;;5033500;28;20455;-76
2022/08/29 03:41:29;;;;;;;8.30;6.17;;;15.60;99.90;;;;;;5031959;28;20458;-77
2022/08/29 03:43:59;;;;;;;9.60;5.63;;;15.60;99.90;;;;;;5032536;28;20534;-77
2022/08/29 03:46:27;;;;;;;11.10;6.60;;;15.60;99.90;;;;;;5033476;28;20446;-76
2022/08/29 03:48:57;;;;;;;9.20;5.50;;;15.60;99.90;;;;;;5031858;28;20546;-76
2022/08/29 03:51:25;;;;;;;9.00;6.40;;;15.50;99.90;;;;;;5033051;28;20431;-76
2022/08/29 03:53:56;;;;;;;14.13;7.10;;;15.50;99.90;;;;;;5031731;28;20467;-76
2022/08/29 03:56:24;;;;;;;9.63;5.70;;;15.50;99.90;;;;;;5033141;28;20522;-76
2022/08/29 03:58:53;;;;;;;9.63;6.00;;;15.50;99.90;;;;;;5031765;28;20441;-76
2022/08/29 04:01:23;;;;;;;11.20;6.17;;;15.50;99.90;;;;;;5033055;28;20756;-77
2022/08/29 04:03:52;;;;;;;10.47;6.33;;;15.50;99.90;;;;;;5035590;28;20489;-77
2022/08/29 04:06:22;;;;;;;16.87;6.50;;;15.50;99.90;;;;;;5037861;28;20830;-77
2022/08/29 04:08:52;;;;;;;11.17;5.87;;;15.50;99.90;;;;;;5036874;28;20801;-76
2022/08/29 04:11:22;;;;;;;10.63;6.80;;;15.50;99.90;;;;;;5036944;28;20430;-77
2022/08/29 04:13:51;;;;;;;13.03;6.17;;;15.50;99.90;;;;;;5035342;28;20788;-76
2022/08/29 04:16:22;;;;;;;10.73;6.87;;;15.50;99.90;;;;;;5035349;28;20441;-76
2022/08/29 04:18:51;;;;;;;8.10;6.03;;;15.50;99.90;;;;;;5035741;28;20499;-76
2022/08/29 04:21:20;;;;;;;14.40;6.80;;;15.50;99.90;;;;;;5036632;28;20415;-76
2022/08/29 04:23:49;;;;;;;9.63;6.40;;;15.50;99.90;;;;;;5036496;28;20853;-78
2022/08/29 04:26:19;;;;;;;11.67;7.03;;;15.50;99.90;;;;;;5036960;28;20486;-76
2022/08/29 04:29:06;;;;;;;11.10;7.20;;;15.50;99.90;;;;;;5036732;28;20455;-74
2022/08/29 04:31:35;;;;;;;15.70;8.00;;;15.50;99.90;;;;;;5035093;28;20525;-76
2022/08/29 04:34:04;;;;;;;12.90;7.10;;;15.50;99.90;;;;;;5035077;28;20480;-76
2022/08/29 04:36:35;;;;;;;11.73;7.67;;;15.50;99.90;;;;;;5036809;28;20467;-76
2022/08/29 04:39:05;;;;;;;13.77;7.53;;;15.60;99.90;;;;;;5036448;28;20490;-76
2022/08/29 04:41:34;;;;;;;10.13;6.30;;;15.60;99.90;;;;;;5036187;28;20409;-76
2022/08/29 04:44:03;;;;;;;14.47;7.00;;;15.60;99.90;;;;;;5036080;28;21006;-76
2022/08/29 04:46:32;;;;;;;14.40;6.40;;;15.60;99.90;;;;;;5034919;28;20471;-75
2022/08/29 04:49:00;;;;;;;11.03;6.70;;;15.60;99.90;;;;;;5036280;28;20809;-76
2022/08/29 04:51:33;;;;;;;14.27;7.53;;;15.60;99.90;;;;;;5036250;28;20796;-76
2022/08/29 04:54:03;;;;;;;16.20;6.93;;;15.70;99.90;;;;;;5036044;28;20548;-77
2022/08/29 04:56:31;;;;;;;12.60;6.67;;;15.70;99.90;;;;;;5035976;28;20435;-76
2022/08/29 04:59:01;;;;;;;11.30;6.67;;;15.70;99.90;;;;;;5034656;28;20524;-76
2022/08/29 05:01:31;;;;;;;9.80;7.03;;;15.70;99.90;;;;;;5035978;28;20418;-76
2022/08/29 05:03:59;;;;;;;10.00;6.40;;;15.80;99.90;;;;;;5035976;28;20907;-77
2022/08/29 05:06:28;;;;;;;12.77;7.07;;;15.80;99.90;;;;;;5034498;28;20418;-76
2022/08/29 05:08:56;;;;;;;15.63;8.60;;;15.80;99.90;;;;;;5035765;28;20454;-76
2022/08/29 05:11:29;;;;;;;12.20;7.00;;;15.90;99.90;;;;;;5035940;28;20863;-77
2022/08/29 05:13:59;;;;;;;16.30;8.37;;;15.90;99.90;;;;;;5034104;28;20437;-77
2022/08/29 05:16:28;;;;;;;16.20;8.20;;;16.00;99.90;;;;;;5033346;28;20807;-76
2022/08/29 05:18:58;;;;;;;14.60;7.70;;;16.00;99.90;;;;;;5034258;28;20467;-77
2022/08/29 05:21:30;;;;;;;14.37;7.47;;;16.00;99.90;;;;;;5034373;28;20974;-76
2022/08/29 05:24:04;;;;;;;18.30;8.50;;;16.10;99.90;;;;;;5035871;28;20452;-77
2022/08/29 05:26:37;;;;;;;10.57;7.40;;;16.10;99.90;;;;;;5035929;28;20414;-77
2022/08/29 05:29:07;;;;;;;11.67;7.33;;;16.10;99.90;;;;;;5034508;28;20533;-76
2022/08/29 05:31:36;;;;;;;17.13;8.17;;;16.20;99.90;;;;;;5036869;28;20417;-76
2022/08/29 05:34:05;;;;;;;13.80;7.60;;;16.20;99.90;;;;;;5034901;28;20545;-76
2022/08/29 05:36:53;;;;;;;13.40;7.17;;;16.20;99.90;;;;;;5034341;28;20410;-77
2022/08/29 05:39:21;;;;;;;13.40;6.70;;;16.20;99.90;;;;;;5034164;28;20444;-77
2022/08/29 05:41:54;;;;;;;14.63;6.67;;;16.30;99.90;;;;;;5034114;28;20420;-77
2022/08/29 05:44:22;;;;;;;14.60;8.00;;;16.30;99.90;;;;;;5034163;28;20454;-77
2022/08/29 05:46:50;;;;;;;15.03;8.17;;;16.30;99.90;;;;;;5034373;28;20542;-76
2022/08/29 05:49:18;;;;;;;12.50;7.23;;;16.40;99.90;;;;;;5035665;28;20809;-76
2022/08/29 05:51:47;;;;;;;14.87;8.07;;;16.40;99.90;;;;;;5037177;28;20438;-77
2022/08/29 05:54:15;;;;;;;13.30;7.70;;;16.40;99.90;;;;;;5036041;28;21058;-77
2022/08/29 05:56:43;;;;;;;13.40;7.60;;;16.50;99.90;;;;;;5038383;28;20420;-77
2022/08/29 05:59:13;;;;;;;13.10;6.97;;;16.50;99.90;;;;;;5038060;28;20461;-78
2022/08/29 06:01:41;;;;;;;15.17;7.17;;;16.50;99.90;;;;;;5037821;28;20439;-77
2022/08/29 06:04:10;;;;;;;10.97;7.70;;;16.60;99.90;;;;;;5036213;28;20810;-77
2022/08/29 06:06:40;;;;;;;12.77;7.33;;;16.60;99.90;;;;;;5034008;28;20443;-77
2022/08/29 06:09:09;;;;;;;13.70;7.40;;;16.70;99.90;;;;;;5035552;28;20498;-76
2022/08/29 06:11:37;;;;;;;14.97;7.90;;;16.80;99.90;;;;;;5035156;28;20431;-78
2022/08/29 06:14:06;;;;;;;12.43;8.50;;;16.80;99.90;;;;;;5035126;28;20455;-77
2022/08/29 06:16:35;;;;;;;15.20;7.00;;;16.90;99.90;;;;;;5035414;28;20466;-76
2022/08/29 06:19:03;;;;;;;15.67;7.73;;;17.00;99.90;;;;;;5034653;28;20445;-77
2022/08/29 06:21:31;;;;;;;14.80;7.20;;;17.00;99.90;;;;;;5034561;28;20500;-78
2022/08/29 06:24:00;;;;;;;14.60;7.83;;;17.10;99.90;;;;;;5035310;28;20434;-77
2022/08/29 06:26:30;;;;;;;14.33;7.20;;;17.10;99.90;;;;;;5033975;28;20865;-77
2022/08/29 06:28:58;;;;;;;18.27;7.77;;;17.20;99.90;;;;;;5035735;28;20838;-79
2022/08/29 06:31:28;;;;;;;14.03;7.50;;;17.20;99.90;;;;;;5037789;28;20435;-78
2022/08/29 06:34:00;;;;;;;14.37;7.60;;;17.30;99.90;;;;;;5034054;28;20473;-78
2022/08/29 06:36:30;;;;;;;12.13;7.43;;;17.30;99.90;;;;;;5036099;28;20967;-78
2022/08/29 06:38:59;;;;;;;13.50;7.30;;;17.30;99.90;;;;;;5033958;28;20852;-76
2022/08/29 06:41:29;;;;;;;14.23;7.10;;;17.30;99.90;;;;;;5034294;28;20784;-78
2022/08/29 06:44:00;;;;;;;14.87;7.37;;;17.40;99.90;;;;;;5034381;28;20526;-76
2022/08/29 06:46:30;;;;;;;11.10;7.37;;;17.40;99.90;;;;;;5034889;28;20431;-78
2022/08/29 06:49:03;;;;;;;14.80;8.20;;;17.40;99.90;;;;;;5035023;28;20490;-78
2022/08/29 06:51:33;;;;;;;12.30;7.13;;;17.50;99.90;;;;;;5034559;28;20427;-76
2022/08/29 06:54:01;;;;;;;16.93;8.23;;;17.50;99.90;;;;;;5033620;28;20440;-77
2022/08/29 06:56:30;;;;;;;14.87;6.93;;;17.60;99.90;;;;;;5033335;28;20466;-79
2022/08/29 06:58:58;;;;;;;17.20;8.30;;;17.60;99.90;;;;;;5033396;28;20853;-78
2022/08/29 07:01:27;;;;;;;12.77;6.77;;;17.60;99.90;;;;;;5037481;28;20538;-77
2022/08/29 07:03:56;;;;;;;15.10;8.00;;;17.60;99.90;;;;;;5038296;28;20438;-77
2022/08/29 07:06:27;;;;;;;17.70;7.90;;;17.60;99.90;;;;;;5036990;28;20457;-78
2022/08/29 07:08:56;;;;;;;14.23;7.20;;;17.70;99.90;;;;;;5040204;28;20562;-80
2022/08/29 07:11:25;;;;;;;20.30;8.60;;;17.80;99.90;;;;;;5040517;28;20527;-80
2022/08/29 07:13:55;;;;;;;13.10;6.73;;;17.80;99.90;;;;;;5041303;28;20967;-80
2022/08/29 07:16:23;;;;;;;18.20;7.60;;;17.90;99.90;;;;;;5038341;28;20538;-79
2022/08/29 07:18:53;;;;;;;13.90;7.63;;;17.90;99.90;;;;;;5038612;28;20545;-79
2022/08/29 07:21:24;;;;;;;12.33;6.50;;;18.00;99.90;;;;;;5038158;28;21021;-79
2022/08/29 07:23:55;;;;;;;12.97;6.70;;;18.00;99.90;;;;;;5037861;28;20530;-77
2022/08/29 07:26:27;;;;;;;15.80;7.33;;;18.00;99.90;;;;;;5037788;28;20440;-78
2022/08/29 07:28:58;;;;;;;16.93;8.10;;;18.10;99.90;;;;;;5038131;28;20566;-78
2022/08/29 07:31:30;;;;;;;13.77;7.30;;;18.10;99.90;;;;;;5038146;28;20476;-78
2022/08/29 07:33:58;;;;;;;13.50;7.50;;;18.20;99.90;;;;;;5034115;28;20474;-78
2022/08/29 07:36:30;;;;;;;15.63;7.87;;;18.30;99.90;;;;;;5033947;28;20837;-78
2022/08/29 07:39:00;;;;;;;13.17;7.17;;;18.40;99.90;;;;;;5036725;28;20454;-77
2022/08/29 07:41:28;;;;;;;15.70;7.07;;;18.40;99.90;;;;;;5038056;28;20959;-77
2022/08/29 07:43:57;;;;;;;12.30;7.20;;;18.60;99.90;;;;;;5041402;28;20449;-78
2022/08/29 07:46:25;;;;;;;10.10;6.90;;;18.80;99.90;;;;;;5042697;28;20538;-79
2022/08/29 07:48:54;;;;;;;9.80;6.63;;;19.00;99.90;;;;;;5039743;28;20481;-77
2022/08/29 07:51:23;;;;;;;14.07;6.37;;;19.10;99.90;;;;;;5037927;28;20454;-77
2022/08/29 07:53:52;;;;;;;13.23;6.93;;;19.10;99.90;;;;;;5037734;28;21034;-80
2022/08/29 07:56:25;;;;;;;15.63;7.33;;;19.10;99.90;;;;;;5038982;28;20481;-79
2022/08/29 07:58:54;;;;;;;12.73;7.60;;;19.10;99.90;;;;;;5037843;28;20481;-79
2022/08/29 08:01:24;;;;;;;12.90;8.07;;;19.10;99.90;;;;;;5038704;28;20533;-77
2022/08/29 08:03:52;;;;;;;14.43;6.87;;;19.20;99.90;;;;;;5039067;28;20431;-79
2022/08/29 08:06:23;;;;;;;10.47;7.17;;;19.30;99.90;;;;;;5039568;28;20864;-77
2022/08/29 08:08:55;;;;;;;12.73;7.23;;;19.50;99.90;;;;;;5038160;28;21039;-78
2022/08/29 08:11:25;;;;;;;9.13;6.20;;;19.50;99.90;;;;;;5037343;28;20462;-78
2022/08/29 08:13:55;;;;;;;9.70;6.70;;;19.70;99.90;;;;;;5037840;28;20531;-77
2022/08/29 08:16:26;;;;;;;9.67;5.63;;;19.80;99.90;;;;;;5039334;28;20527;-78
2022/08/29 08:18:55;;;;;;;10.13;6.50;;;20.00;99.90;;;;;;5039088;28;20485;-79
2022/08/29 08:21:24;;;;;;;12.80;6.63;;;20.20;99.90;;;;;;5038231;28;20447;-79
2022/08/29 08:23:53;;;;;;;10.50;6.13;;;20.30;99.90;;;;;;5038190;28;20450;-79
2022/08/29 08:26:22;;;;;;;12.40;6.03;;;20.40;99.90;;;;;;5039798;28;20461;-78
2022/08/29 08:28:52;;;;;;;7.97;6.10;;;20.50;99.90;;;;;;5050239;28;20862;-79
2022/08/29 08:31:22;;;;;;;9.23;6.20;;;20.50;99.90;;;;;;5046677;28;20430;-78
2022/08/29 08:33:50;;;;;;;9.10;5.93;;;20.50;99.90;;;;;;5038847;28;20431;-78
2022/08/29 08:36:21;;;;;;;7.93;5.43;;;20.50;99.90;;;;;;5038282;28;20482;-77
2022/08/29 08:38:51;;;;;;;6.77;5.30;;;20.50;99.90;;;;;;5036807;28;20495;-76
2022/08/29 08:41:35;;;;;;;9.30;5.27;;;20.50;99.90;;;;;;5037857;28;20435;-77
2022/08/29 08:44:09;;;;;;;6.80;4.90;;;20.50;99.90;;;;;;5038098;28;20435;-78
2022/08/29 08:46:41;;;;;;;5.63;4.80;;;20.50;99.90;;;;;;5037751;28;20434;-77
2022/08/29 08:49:14;;;;;;;7.83;5.60;;;20.50;99.90;;;;;;5039206;28;20550;-77
2022/08/29 08:51:48;;;;;;;7.43;5.37;;;20.60;99.90;;;;;;5037087;28;20446;-79
2022/08/29 08:54:23;;;;;;;5.63;4.13;;;20.60;99.90;;;;;;5038310;28;20436;-78
2022/08/29 08:56:57;;;;;;;6.83;4.37;;;20.70;99.90;;;;;;5037537;28;21063;-77
2022/08/29 08:59:38;;;;;;;6.53;5.53;;;20.90;99.90;;;;;;5041962;28;20490;-79
2022/08/29 09:02:13;;;;;;;9.90;4.63;;;21.00;99.90;;;;;;5039067;28;20454;-78
2022/08/29 09:04:58;;;;;;;6.00;4.93;;;21.20;99.90;;;;;;5039465;28;20415;-78
2022/08/29 09:07:44;;;;;;;7.53;4.87;;;21.30;99.90;;;;;;5038033;28;20478;-79
2022/08/29 09:10:23;;;;;;;6.70;4.53;;;21.50;99.90;;;;;;5037212;28;20485;-78
2022/08/29 09:13:00;;;;;;;8.07;4.60;;;21.60;99.90;;;;;;5039120;28;20474;-79
2022/08/29 09:15:38;;;;;;;6.97;4.77;;;21.70;99.90;;;;;;5040138;28;20486;-79
2022/08/29 09:18:09;;;;;;;4.60;3.37;;;21.70;99.90;;;;;;5038794;28;20485;-78
2022/08/29 09:20:42;;;;;;;4.03;3.20;;;21.70;99.90;;;;;;5038373;28;20925;-77
2022/08/29 09:23:18;;;;;;;5.53;3.33;;;21.80;99.90;;;;;;5037769;28;20966;-78
2022/08/29 09:25:47;;;;;;;5.70;3.77;;;21.80;99.90;;;;;;5037618;28;20431;-77
2022/08/29 09:28:16;;;;;;;5.73;3.57;;;21.70;99.90;;;;;;5037587;28;20462;-77
2022/08/29 09:31:16;;;;;;;4.43;3.63;;;21.70;99.90;;;;;;5036807;28;20880;-78
2022/08/29 09:33:48;;;;;;;5.00;3.67;;;21.80;99.90;;;;;;5035881;28;20454;-77
2022/08/29 09:36:36;;;;;;;4.37;3.80;;;21.80;99.90;;;;;;5038734;28;20770;-77
2022/08/29 09:39:17;;;;;;;6.67;3.93;;;21.80;99.90;;;;;;5037897;28;20484;-77
2022/08/29 09:41:52;;;;;;;5.10;3.30;;;21.80;99.90;;;;;;5038032;28;20515;-76
2022/08/29 09:44:25;;;;;;;5.50;3.93;;;21.80;99.90;;;;;;5037746;28;20825;-77
2022/08/29 09:47:11;;;;;;;12.93;4.77;;;21.90;99.90;;;;;;5038559;28;20514;-79
2022/08/29 09:49:41;;;;;;;7.03;3.90;;;22.00;99.90;;;;;;5034465;28;20474;-77
2022/08/29 09:52:14;;;;;;;5.03;3.57;;;22.00;99.90;;;;;;5036885;28;20436;-77
2022/08/29 09:54:43;;;;;;;3.93;3.53;;;22.10;99.90;;;;;;5037385;28;20465;-77
2022/08/29 09:57:21;;;;;;;3.20;2.30;;;22.10;99.90;;;;;;5037612;28;20493;-79
2022/08/29 10:00:06;;;;;;;7.30;3.07;;;22.20;99.90;;;;;;5036784;28;20463;-77
2022/08/29 10:02:45;;;;;;;3.13;2.63;;;22.30;99.90;;;;;;5034822;28;20439;-80
2022/08/29 10:05:33;;;;;;;5.77;2.93;;;22.30;99.90;;;;;;5035840;28;20446;-78
2022/08/29 10:08:04;;;;;;;3.40;2.50;;;22.40;99.90;;;;;;5038890;28;20434;-78
2022/08/29 10:10:35;;;;;;;2.67;2.10;;;22.40;99.90;;;;;;5037030;28;20493;-78
2022/08/29 10:13:09;;;;;;;3.67;2.40;;;22.40;99.90;;;;;;5038741;28;20818;-78
2022/08/29 10:15:43;;;;;;;6.03;2.30;;;22.50;99.90;;;;;;5038261;28;20477;-79
2022/08/29 10:18:28;;;;;;;4.10;2.60;;;22.50;99.90;;;;;;5037141;28;20852;-78
2022/08/29 10:21:09;;;;;;;4.77;2.70;;;22.60;99.90;;;;;;5038677;28;20485;-78
2022/08/29 10:23:44;;;;;;;4.73;2.43;;;22.70;99.90;;;;;;5039806;28;20450;-78
2022/08/29 10:26:29;;;;;;;3.37;2.57;;;22.70;99.90;;;;;;5037596;28;20435;-78
2022/08/29 10:29:06;;;;;;;4.57;2.33;;;22.80;99.90;;;;;;5038447;28;20987;-78
2022/08/29 10:31:38;;;;;;;3.33;2.87;;;22.80;99.90;;;;;;5048584;28;20860;-80
2022/08/29 10:34:25;;;;;;;4.30;2.83;;;22.90;99.90;;;;;;5044760;28;20415;-78
2022/08/29 10:37:01;;;;;;;3.07;2.70;;;22.80;99.90;;;;;;5041758;28;20411;-79
2022/08/29 10:39:42;;;;;;;3.23;2.77;;;22.80;99.90;;;;;;5037275;28;20459;-78
2022/08/29 10:42:18;;;;;;;3.00;2.30;;;22.80;99.90;;;;;;5036799;28;20469;-78
2022/08/29 10:44:55;;;;;;;4.87;2.30;;;22.80;99.90;;;;;;5037602;28;20501;-78
2022/08/29 10:47:29;;;;;;;2.70;2.20;;;22.90;99.90;;;;;;5039994;28;20419;-80
2022/08/29 10:50:29;;;;;;;3.00;2.10;;;22.90;99.90;;;;;;5038455;28;20581;-78
2022/08/29 10:53:19;;;;;;;3.60;2.93;;;23.00;99.90;;;;;;5037554;28;20447;-79
2022/08/29 10:55:55;;;;;;;3.40;2.80;;;22.90;99.90;;;;;;5037550;28;20459;-78
2022/08/29 10:58:39;;;;;;;3.90;2.20;;;22.90;99.90;;;;;;5036717;28;20525;-78
2022/08/29 11:01:14;;;;;;;3.10;2.60;;;23.00;99.90;;;;;;5034855;28;20493;-77
2022/08/29 11:03:49;;;;;;;3.40;2.10;;;23.00;99.90;;;;;;5034685;28;20904;-77
2022/08/29 11:06:24;;;;;;;3.60;2.40;;;23.10;99.90;;;;;;5051752;28;20435;-79
2022/08/29 11:08:58;;;;;;;3.17;2.37;;;23.20;99.90;;;;;;5035921;28;20462;-79
2022/08/29 11:11:29;;;;;;;4.90;2.50;;;23.30;99.90;;;;;;5035308;28;20435;-78
2022/08/29 11:14:02;;;;;;;3.90;2.53;;;23.30;99.90;;;;;;5036204;28;20882;-78
2022/08/29 11:16:38;;;;;;;3.70;2.30;;;23.40;99.90;;;;;;5034842;28;20545;-77
2022/08/29 11:19:13;;;;;;;3.57;2.37;;;23.40;99.90;;;;;;5035178;28;20479;-78
2022/08/29 11:21:49;;;;;;;3.17;2.60;;;23.50;99.70;;;;;;5035915;28;20443;-78
2022/08/29 11:24:20;;;;;;;3.13;2.13;;;23.50;99.50;;;;;;5036065;28;20488;-78
2022/08/29 11:26:56;;;;;;;4.47;2.40;;;23.50;99.40;;;;;;5037135;28;20421;-79
2022/08/29 11:29:34;;;;;;;3.80;2.57;;;23.60;99.30;;;;;;5037893;28;20461;-79
2022/08/29 11:32:07;;;;;;;3.00;1.90;;;23.60;99.50;;;;;;5037246;28;20470;-78
2022/08/29 11:34:47;;;;;;;3.40;1.87;;;23.50;99.10;;;;;;5035831;28;20538;-78
2022/08/29 11:37:48;;;;;;;4.90;2.70;;;23.60;98.80;;;;;;5035556;28;20438;-78
2022/08/29 11:40:36;;;;;;;4.47;2.27;;;23.60;98.50;;;;;;5035204;28;20483;-78
2022/08/29 11:43:27;;;;;;;6.97;3.00;;;23.70;98.40;;;;;;5037972;28;20458;-79
2022/08/29 11:45:58;;;;;;;3.90;1.80;;;23.80;98.30;;;;;;5037814;28;20419;-79
2022/08/29 11:48:34;;;;;;;5.87;1.70;;;23.90;98.00;;;;;;5035568;28;20542;-77
2022/08/29 11:51:28;;;;;;;2.60;1.60;;;23.90;97.70;;;;;;5036105;28;20419;-79
2022/08/29 11:54:37;;;;;;;2.70;1.50;;;23.90;97.10;;;;;;5033095;28;21007;-77
2022/08/29 11:57:38;;;;;;;3.30;2.00;;;23.80;96.90;;;;;;5036227;28;20438;-80
2022/08/29 12:00:39;;;;;;;2.43;1.47;;;23.70;96.90;;;;;;5038672;28;20470;-77
2022/08/29 12:03:45;;;;;;;2.10;1.40;;;23.70;96.60;;;;;;5038265;28;20545;-79
2022/08/29 12:06:41;;;;;;;2.80;1.60;;;23.70;96.70;;;;;;5022039;28;20458;-79
2022/08/29 12:09:26;;;;;;;4.63;2.37;;;23.80;96.70;;;;;;5030686;28;20471;-79
2022/08/29 12:12:19;;;;;;;3.00;2.00;;;23.80;96.70;;;;;;5037722;28;20493;-79
2022/08/29 12:14:48;;;;;;;4.47;2.03;;;24.00;96.60;;;;;;5035233;28;20505;-78
2022/08/29 12:17:40;;;;;;;3.17;2.37;;;24.00;96.50;;;;;;5035567;28;20869;-78
2022/08/29 12:20:40;;;;;;;4.10;1.80;;;24.00;96.40;;;;;;5037184;28;20837;-78
2022/08/29 12:23:21;;;;;;;4.13;1.83;;;24.00;96.40;;;;;;5035547;28;20447;-77
2022/08/29 12:25:52;;;;;;;5.87;1.80;;;24.00;96.50;;;;;;5040326;28;20423;-78
2022/08/29 12:28:47;;;;;;;3.03;1.77;;;24.10;96.70;;;;;;5037516;28;20821;-78
2022/08/29 12:31:36;;;;;;;3.27;1.80;;;24.20;96.80;;;;;;5040515;28;20776;-78
2022/08/29 12:34:17;;;;;;;2.57;1.60;;;24.20;96.30;;;;;;5038689;28;20441;-79
2022/08/29 12:37:09;;;;;;;4.50;1.53;;;24.20;96.30;;;;;;5038142;28;20438;-78
2022/08/29 12:39:56;;;;;;;4.30;1.70;;;24.30;96.30;;;;;;5037888;28;21047;-77
2022/08/29 12:42:37;;;;;;;2.40;1.40;;;24.20;96.00;;;;;;5037685;28;20473;-78
2022/08/29 12:45:11;;;;;;;4.17;2.27;;;24.20;95.80;;;;;;5038752;28;20453;-80
2022/08/29 12:47:44;;;;;;;2.80;1.60;;;24.20;95.70;;;;;;5039824;28;20803;-77
2022/08/29 12:50:17;;;;;;;3.30;1.37;;;24.20;95.70;;;;;;5039608;28;20494;-78
2022/08/29 12:53:00;;;;;;;2.40;1.63;;;24.20;95.50;;;;;;5039113;28;20458;-79
2022/08/29 12:55:34;;;;;;;2.90;1.60;;;24.30;95.50;;;;;;5038132;28;20427;-77
2022/08/29 12:58:03;;;;;;;2.40;1.43;;;24.30;95.40;;;;;;5038903;28;20419;-77
2022/08/29 13:00:34;;;;;;;3.60;1.60;;;24.30;95.40;;;;;;5038198;28;20803;-78
2022/08/29 13:03:05;;;;;;;2.17;1.37;;;24.30;95.60;;;;;;5037619;28;20453;-77
2022/08/29 13:05:42;;;;;;;2.90;1.60;;;24.40;95.30;;;;;;5038400;28;20427;-78
2022/08/29 13:08:13;;;;;;;4.07;1.30;;;24.50;95.10;;;;;;5038203;28;20455;-78
2022/08/29 13:10:53;;;;;;;3.03;1.30;;;24.50;94.90;;;;;;5038830;28;20426;-78
2022/08/29 13:13:24;;;;;;;2.87;1.40;;;24.50;94.70;;;;;;5038528;28;20991;-77
2022/08/29 13:15:53;;;;;;;3.13;1.40;;;24.50;94.50;;;;;;5038839;28;20458;-77